Hoxeyville, Michigan
Current Conditions -  °F | °C
As of 7:14 AM on Monday 20 Oct 2014 (Local Time) from KCAD Reporting Station
Overcast Overcast  
Wind Chill: 44°   Ceiling: 600
Heat Index: 47°   Visibility: 10mi
Dew Point: 47°   Wind: 7mph
Humidity: 98%   Direction: 210°SSW
Pressure: 29.75"   Gusts: NA
Location:  44.2433°N, 85.5328°W
Report Text: KCAD 201114Z AUTO 21006KT 10SM OVC006 08/08 A2975 RMK AO2 T00850082
Loading
Personal Weather Stations






























Interactive Weather Map
Tropical Storm Tracking
New forecast layout! Learn more

10-Day Weather Forecast

Advertisements
Track Severe Weather on mobile